sensor_id;sensor_type;location;lat;lon;timestamp;temperature;humidity
46816;DHT22;32787;53.316;8.670;2023-02-02T00:01:26;6.60;81.60
46816;DHT22;32787;53.316;8.670;2023-02-02T00:03:52;6.60;81.80
46816;DHT22;32787;53.316;8.670;2023-02-02T00:06:21;6.60;82.10
46816;DHT22;32787;53.316;8.670;2023-02-02T00:08:48;6.50;82.20
46816;DHT22;32787;53.316;8.670;2023-02-02T00:11:14;6.60;82.10
46816;DHT22;32787;53.316;8.670;2023-02-02T00:13:40;6.60;81.90
46816;DHT22;32787;53.316;8.670;2023-02-02T00:18:51;6.40;82.20
46816;DHT22;32787;53.316;8.670;2023-02-02T00:21:17;6.40;82.10
46816;DHT22;32787;53.316;8.670;2023-02-02T00:23:42;6.30;82.50
46816;DHT22;32787;53.316;8.670;2023-02-02T00:26:09;6.30;82.40
46816;DHT22;32787;53.316;8.670;2023-02-02T00:28:35;6.20;82.60
46816;DHT22;32787;53.316;8.670;2023-02-02T00:31:00;6.10;83.20
46816;DHT22;32787;53.316;8.670;2023-02-02T00:33:26;6.10;83.60
46816;DHT22;32787;53.316;8.670;2023-02-02T00:35:52;6.10;83.40
46816;DHT22;32787;53.316;8.670;2023-02-02T00:38:17;6.20;83.20
46816;DHT22;32787;53.316;8.670;2023-02-02T00:40:43;6.20;83.50
46816;DHT22;32787;53.316;8.670;2023-02-02T00:43:09;6.20;83.30
46816;DHT22;32787;53.316;8.670;2023-02-02T00:45:35;6.30;83.10
46816;DHT22;32787;53.316;8.670;2023-02-02T00:48:02;6.30;82.60
46816;DHT22;32787;53.316;8.670;2023-02-02T00:50:28;6.40;82.70
46816;DHT22;32787;53.316;8.670;2023-02-02T00:52:53;6.40;82.50
46816;DHT22;32787;53.316;8.670;2023-02-02T00:55:19;6.40;82.80
46816;DHT22;32787;53.316;8.670;2023-02-02T00:57:46;6.40;82.60
46816;DHT22;32787;53.316;8.670;2023-02-02T01:00:15;6.40;83.00
46816;DHT22;32787;53.316;8.670;2023-02-02T01:02:41;6.40;82.90
46816;DHT22;32787;53.316;8.670;2023-02-02T01:05:07;6.40;82.70
46816;DHT22;32787;53.316;8.670;2023-02-02T01:07:33;6.40;83.00
46816;DHT22;32787;53.316;8.670;2023-02-02T01:09:59;6.40;83.00
46816;DHT22;32787;53.316;8.670;2023-02-02T01:12:24;6.30;82.80
46816;DHT22;32787;53.316;8.670;2023-02-02T01:14:50;6.40;82.90
46816;DHT22;32787;53.316;8.670;2023-02-02T01:17:16;6.30;83.00
46816;DHT22;32787;53.316;8.670;2023-02-02T01:19:41;6.30;83.40
46816;DHT22;32787;53.316;8.670;2023-02-02T01:22:07;6.30;83.30
46816;DHT22;32787;53.316;8.670;2023-02-02T01:24:33;6.30;83.20
46816;DHT22;32787;53.316;8.670;2023-02-02T01:26:59;6.30;83.00
46816;DHT22;32787;53.316;8.670;2023-02-02T01:29:25;6.30;82.80
46816;DHT22;32787;53.316;8.670;2023-02-02T01:31:51;6.30;83.20
46816;DHT22;32787;53.316;8.670;2023-02-02T01:34:16;6.30;83.10
46816;DHT22;32787;53.316;8.670;2023-02-02T01:36:42;6.30;83.50
46816;DHT22;32787;53.316;8.670;2023-02-02T01:39:08;6.30;83.30
46816;DHT22;32787;53.316;8.670;2023-02-02T01:41:33;6.20;83.60
46816;DHT22;32787;53.316;8.670;2023-02-02T01:44:04;6.20;83.80
46816;DHT22;32787;53.316;8.670;2023-02-02T01:46:35;6.10;84.00
46816;DHT22;32787;53.316;8.670;2023-02-02T01:49:10;6.10;84.20
46816;DHT22;32787;53.316;8.670;2023-02-02T01:51:50;6.10;84.40
46816;DHT22;32787;53.316;8.670;2023-02-02T01:54:38;6.10;84.70
46816;DHT22;32787;53.316;8.670;2023-02-02T01:57:17;6.00;84.80
46816;DHT22;32787;53.316;8.670;2023-02-02T01:59:46;6.00;84.80
46816;DHT22;32787;53.316;8.670;2023-02-02T02:02:12;6.00;84.70
46816;DHT22;32787;53.316;8.670;2023-02-02T02:04:39;6.00;84.80
46816;DHT22;32787;53.316;8.670;2023-02-02T02:07:06;6.10;84.60
46816;DHT22;32787;53.316;8.670;2023-02-02T02:09:33;6.10;84.40
46816;DHT22;32787;53.316;8.670;2023-02-02T02:11:58;6.10;84.50
46816;DHT22;32787;53.316;8.670;2023-02-02T02:14:24;6.00;84.20
46816;DHT22;32787;53.316;8.670;2023-02-02T02:23:07;6.10;84.20
46816;DHT22;32787;53.316;8.670;2023-02-02T02:37:02;6.10;84.00
46816;DHT22;32787;53.316;8.670;2023-02-02T02:42:21;6.00;83.80
46816;DHT22;32787;53.316;8.670;2023-02-02T02:44:48;6.00;84.40
46816;DHT22;32787;53.316;8.670;2023-02-02T02:47:16;6.10;84.10
46816;DHT22;32787;53.316;8.670;2023-02-02T02:49:47;6.00;83.80
46816;DHT22;32787;53.316;8.670;2023-02-02T02:52:13;6.00;84.00
46816;DHT22;32787;53.316;8.670;2023-02-02T02:54:51;5.90;84.10
46816;DHT22;32787;53.316;8.670;2023-02-02T03:02:47;5.80;84.40
46816;DHT22;32787;53.316;8.670;2023-02-02T03:10:31;5.60;84.40
46816;DHT22;32787;53.316;8.670;2023-02-02T03:12:57;5.60;84.60
46816;DHT22;32787;53.316;8.670;2023-02-02T03:15:23;5.60;84.60
46816;DHT22;32787;53.316;8.670;2023-02-02T03:17:50;5.50;84.80
46816;DHT22;32787;53.316;8.670;2023-02-02T03:20:17;5.50;84.90
46816;DHT22;32787;53.316;8.670;2023-02-02T03:22:43;5.50;85.00
46816;DHT22;32787;53.316;8.670;2023-02-02T03:25:08;5.50;84.80
46816;DHT22;32787;53.316;8.670;2023-02-02T03:27:37;5.60;84.80
46816;DHT22;32787;53.316;8.670;2023-02-02T03:30:06;5.60;84.70
46816;DHT22;32787;53.316;8.670;2023-02-02T03:32:33;5.60;84.50
46816;DHT22;32787;53.316;8.670;2023-02-02T03:34:58;5.60;84.90
46816;DHT22;32787;53.316;8.670;2023-02-02T03:37:24;5.50;84.90
46816;DHT22;32787;53.316;8.670;2023-02-02T03:39:50;5.40;85.00
46816;DHT22;32787;53.316;8.670;2023-02-02T03:42:16;5.40;85.10
46816;DHT22;32787;53.316;8.670;2023-02-02T03:44:41;5.40;85.20
46816;DHT22;32787;53.316;8.670;2023-02-02T03:47:07;5.20;85.40
46816;DHT22;32787;53.316;8.670;2023-02-02T03:49:32;5.10;85.70
46816;DHT22;32787;53.316;8.670;2023-02-02T03:51:58;5.10;85.80
46816;DHT22;32787;53.316;8.670;2023-02-02T03:54:24;5.00;86.10
46816;DHT22;32787;53.316;8.670;2023-02-02T03:56:49;5.00;86.10
46816;DHT22;32787;53.316;8.670;2023-02-02T03:59:15;4.90;86.20
46816;DHT22;32787;53.316;8.670;2023-02-02T04:01:40;4.90;86.40
46816;DHT22;32787;53.316;8.670;2023-02-02T04:04:06;4.80;86.60
46816;DHT22;32787;53.316;8.670;2023-02-02T04:06:32;4.80;86.60
46816;DHT22;32787;53.316;8.670;2023-02-02T04:08:58;4.80;86.90
46816;DHT22;32787;53.316;8.670;2023-02-02T04:11:23;4.70;87.00
46816;DHT22;32787;53.316;8.670;2023-02-02T04:13:49;4.60;87.30
46816;DHT22;32787;53.316;8.670;2023-02-02T04:16:15;4.70;87.20
46816;DHT22;32787;53.316;8.670;2023-02-02T04:18:40;4.70;87.30
46816;DHT22;32787;53.316;8.670;2023-02-02T04:21:06;4.70;87.30
46816;DHT22;32787;53.316;8.670;2023-02-02T04:23:33;4.80;87.20
46816;DHT22;32787;53.316;8.670;2023-02-02T04:25:59;4.80;87.40
46816;DHT22;32787;53.316;8.670;2023-02-02T04:28:26;4.80;87.50
46816;DHT22;32787;53.316;8.670;2023-02-02T04:30:53;5.10;87.30
46816;DHT22;32787;53.316;8.670;2023-02-02T04:33:20;5.10;86.90
46816;DHT22;32787;53.316;8.670;2023-02-02T04:35:46;5.30;86.70
46816;DHT22;32787;53.316;8.670;2023-02-02T04:38:12;5.20;86.60
46816;DHT22;32787;53.316;8.670;2023-02-02T04:40:39;5.30;86.70
46816;DHT22;32787;53.316;8.670;2023-02-02T04:43:05;5.40;86.60
46816;DHT22;32787;53.316;8.670;2023-02-02T04:45:30;5.30;86.40
46816;DHT22;32787;53.316;8.670;2023-02-02T04:47:56;5.30;86.40
46816;DHT22;32787;53.316;8.670;2023-02-02T04:50:21;5.10;86.50
46816;DHT22;32787;53.316;8.670;2023-02-02T04:52:47;5.20;86.70
46816;DHT22;32787;53.316;8.670;2023-02-02T04:55:13;5.20;86.60
46816;DHT22;32787;53.316;8.670;2023-02-02T04:57:39;5.40;86.60
46816;DHT22;32787;53.316;8.670;2023-02-02T05:00:05;5.20;86.60
46816;DHT22;32787;53.316;8.670;2023-02-02T05:02:34;5.30;86.40
46816;DHT22;32787;53.316;8.670;2023-02-02T05:05:00;5.30;86.50
46816;DHT22;32787;53.316;8.670;2023-02-02T05:07:26;5.20;86.50
46816;DHT22;32787;53.316;8.670;2023-02-02T05:09:51;5.30;86.40
46816;DHT22;32787;53.316;8.670;2023-02-02T05:12:17;5.20;86.40
46816;DHT22;32787;53.316;8.670;2023-02-02T05:14:43;5.10;86.60
46816;DHT22;32787;53.316;8.670;2023-02-02T05:17:08;5.20;86.70
46816;DHT22;32787;53.316;8.670;2023-02-02T05:19:34;5.20;86.70
46816;DHT22;32787;53.316;8.670;2023-02-02T05:21:59;5.20;86.60
46816;DHT22;32787;53.316;8.670;2023-02-02T05:24:25;5.10;86.50
46816;DHT22;32787;53.316;8.670;2023-02-02T05:26:52;5.00;86.80
46816;DHT22;32787;53.316;8.670;2023-02-02T05:29:23;5.00;86.70
46816;DHT22;32787;53.316;8.670;2023-02-02T05:31:49;5.00;86.90
46816;DHT22;32787;53.316;8.670;2023-02-02T05:34:14;4.90;87.00
46816;DHT22;32787;53.316;8.670;2023-02-02T05:36:40;4.90;87.00
46816;DHT22;32787;53.316;8.670;2023-02-02T05:39:06;5.00;87.00
46816;DHT22;32787;53.316;8.670;2023-02-02T05:41:31;5.10;86.90
46816;DHT22;32787;53.316;8.670;2023-02-02T05:44:01;5.20;87.00
46816;DHT22;32787;53.316;8.670;2023-02-02T05:46:27;5.20;86.80
46816;DHT22;32787;53.316;8.670;2023-02-02T05:48:53;5.30;86.60
46816;DHT22;32787;53.316;8.670;2023-02-02T05:51:23;5.30;86.70
46816;DHT22;32787;53.316;8.670;2023-02-02T05:53:49;5.20;86.60
46816;DHT22;32787;53.316;8.670;2023-02-02T05:56:15;5.20;86.70
46816;DHT22;32787;53.316;8.670;2023-02-02T05:58:41;5.30;86.80
46816;DHT22;32787;53.316;8.670;2023-02-02T06:01:07;5.40;86.70
46816;DHT22;32787;53.316;8.670;2023-02-02T06:03:34;5.40;86.70
46816;DHT22;32787;53.316;8.670;2023-02-02T06:06:00;5.30;86.70
46816;DHT22;32787;53.316;8.670;2023-02-02T06:08:25;5.20;86.80
46816;DHT22;32787;53.316;8.670;2023-02-02T06:10:51;5.20;86.90
46816;DHT22;32787;53.316;8.670;2023-02-02T06:13:17;5.10;87.00
46816;DHT22;32787;53.316;8.670;2023-02-02T06:15:42;4.90;87.30
46816;DHT22;32787;53.316;8.670;2023-02-02T06:18:08;4.90;87.20
46816;DHT22;32787;53.316;8.670;2023-02-02T06:20:35;4.90;87.10
46816;DHT22;32787;53.316;8.670;2023-02-02T06:23:00;4.80;87.40
46816;DHT22;32787;53.316;8.670;2023-02-02T06:25:26;4.80;87.60
46816;DHT22;32787;53.316;8.670;2023-02-02T06:27:56;4.80;87.60
46816;DHT22;32787;53.316;8.670;2023-02-02T06:30:22;4.70;87.60
46816;DHT22;32787;53.316;8.670;2023-02-02T06:32:47;4.50;87.70
46816;DHT22;32787;53.316;8.670;2023-02-02T06:35:13;4.50;87.80
46816;DHT22;32787;53.316;8.670;2023-02-02T06:37:39;4.40;88.10
46816;DHT22;32787;53.316;8.670;2023-02-02T06:40:07;4.30;88.20
46816;DHT22;32787;53.316;8.670;2023-02-02T06:42:33;4.30;88.50
46816;DHT22;32787;53.316;8.670;2023-02-02T06:44:58;4.30;88.50
46816;DHT22;32787;53.316;8.670;2023-02-02T06:47:24;4.30;88.60
46816;DHT22;32787;53.316;8.670;2023-02-02T06:49:50;4.20;88.50
46816;DHT22;32787;53.316;8.670;2023-02-02T06:52:15;4.20;88.80
46816;DHT22;32787;53.316;8.670;2023-02-02T06:54:41;4.10;88.80
46816;DHT22;32787;53.316;8.670;2023-02-02T06:57:07;4.10;89.10
46816;DHT22;32787;53.316;8.670;2023-02-02T06:59:33;4.10;89.10
46816;DHT22;32787;53.316;8.670;2023-02-02T07:01:59;4.10;89.10
46816;DHT22;32787;53.316;8.670;2023-02-02T07:04:24;4.10;89.20
46816;DHT22;32787;53.316;8.670;2023-02-02T07:06:50;4.00;89.20
46816;DHT22;32787;53.316;8.670;2023-02-02T07:09:16;4.00;89.40
46816;DHT22;32787;53.316;8.670;2023-02-02T07:11:42;4.00;89.40
46816;DHT22;32787;53.316;8.670;2023-02-02T07:14:08;4.00;89.40
46816;DHT22;32787;53.316;8.670;2023-02-02T07:16:34;3.90;89.50
46816;DHT22;32787;53.316;8.670;2023-02-02T07:18:59;3.90;89.40
46816;DHT22;32787;53.316;8.670;2023-02-02T07:21:25;3.90;89.50
46816;DHT22;32787;53.316;8.670;2023-02-02T07:24:00;4.00;89.60
46816;DHT22;32787;53.316;8.670;2023-02-02T07:26:25;3.90;89.50
46816;DHT22;32787;53.316;8.670;2023-02-02T07:28:51;3.90;89.60
46816;DHT22;32787;53.316;8.670;2023-02-02T07:31:22;3.90;89.60
46816;DHT22;32787;53.316;8.670;2023-02-02T07:33:48;4.00;89.60
46816;DHT22;32787;53.316;8.670;2023-02-02T07:36:20;3.90;89.80
46816;DHT22;32787;53.316;8.670;2023-02-02T07:38:47;4.00;89.90
46816;DHT22;32787;53.316;8.670;2023-02-02T07:41:14;4.00;89.90
46816;DHT22;32787;53.316;8.670;2023-02-02T07:43:40;4.00;90.00
46816;DHT22;32787;53.316;8.670;2023-02-02T07:46:07;4.10;90.00
46816;DHT22;32787;53.316;8.670;2023-02-02T07:48:35;4.30;90.00
46816;DHT22;32787;53.316;8.670;2023-02-02T07:51:03;4.30;89.90
46816;DHT22;32787;53.316;8.670;2023-02-02T07:53:29;4.40;89.70
46816;DHT22;32787;53.316;8.670;2023-02-02T07:58:34;4.40;89.40
46816;DHT22;32787;53.316;8.670;2023-02-02T08:01:06;4.40;89.40
46816;DHT22;32787;53.316;8.670;2023-02-02T08:03:32;4.30;89.50
46816;DHT22;32787;53.316;8.670;2023-02-02T08:05:58;4.40;89.70
46816;DHT22;32787;53.316;8.670;2023-02-02T08:08:24;4.40;89.50
46816;DHT22;32787;53.316;8.670;2023-02-02T08:10:51;4.50;89.40
46816;DHT22;32787;53.316;8.670;2023-02-02T08:13:17;4.50;89.50
46816;DHT22;32787;53.316;8.670;2023-02-02T08:15:42;4.60;89.50
46816;DHT22;32787;53.316;8.670;2023-02-02T08:18:08;4.70;89.40
46816;DHT22;32787;53.316;8.670;2023-02-02T08:20:33;4.80;89.30
46816;DHT22;32787;53.316;8.670;2023-02-02T08:22:59;4.80;89.20
46816;DHT22;32787;53.316;8.670;2023-02-02T08:25:25;4.90;89.20
46816;DHT22;32787;53.316;8.670;2023-02-02T08:27:54;4.90;88.80
46816;DHT22;32787;53.316;8.670;2023-02-02T08:30:23;5.10;88.90
46816;DHT22;32787;53.316;8.670;2023-02-02T08:32:48;5.10;88.60
46816;DHT22;32787;53.316;8.670;2023-02-02T08:35:14;5.30;88.40
46816;DHT22;32787;53.316;8.670;2023-02-02T08:37:40;5.40;88.40
46816;DHT22;32787;53.316;8.670;2023-02-02T08:40:06;5.50;88.10
46816;DHT22;32787;53.316;8.670;2023-02-02T08:42:32;5.60;87.70
46816;DHT22;32787;53.316;8.670;2023-02-02T08:44:58;5.70;87.80
46816;DHT22;32787;53.316;8.670;2023-02-02T08:47:23;5.70;87.70
46816;DHT22;32787;53.316;8.670;2023-02-02T08:49:49;5.70;87.70
46816;DHT22;32787;53.316;8.670;2023-02-02T08:52:15;5.70;87.70
46816;DHT22;32787;53.316;8.670;2023-02-02T08:54:40;5.70;87.50
46816;DHT22;32787;53.316;8.670;2023-02-02T08:57:06;5.60;87.40
46816;DHT22;32787;53.316;8.670;2023-02-02T08:59:31;5.60;87.50
46816;DHT22;32787;53.316;8.670;2023-02-02T09:01:57;5.60;87.50
46816;DHT22;32787;53.316;8.670;2023-02-02T09:04:23;5.50;87.60
46816;DHT22;32787;53.316;8.670;2023-02-02T09:06:48;5.50;87.60
46816;DHT22;32787;53.316;8.670;2023-02-02T09:09:15;5.40;87.70
46816;DHT22;32787;53.316;8.670;2023-02-02T09:11:41;5.40;87.60
46816;DHT22;32787;53.316;8.670;2023-02-02T09:14:08;5.60;87.70
46816;DHT22;32787;53.316;8.670;2023-02-02T09:16:34;5.60;87.60
46816;DHT22;32787;53.316;8.670;2023-02-02T09:19:00;5.70;87.60
46816;DHT22;32787;53.316;8.670;2023-02-02T09:21:26;5.70;87.60
46816;DHT22;32787;53.316;8.670;2023-02-02T09:23:53;5.70;87.40
46816;DHT22;32787;53.316;8.670;2023-02-02T09:26:27;5.80;87.30
46816;DHT22;32787;53.316;8.670;2023-02-02T09:28:55;5.90;87.30
46816;DHT22;32787;53.316;8.670;2023-02-02T09:31:21;5.90;87.10
46816;DHT22;32787;53.316;8.670;2023-02-02T09:33:47;5.90;87.20
46816;DHT22;32787;53.316;8.670;2023-02-02T09:36:17;6.00;87.20
46816;DHT22;32787;53.316;8.670;2023-02-02T09:38:45;5.90;87.10
46816;DHT22;32787;53.316;8.670;2023-02-02T09:49:08;6.30;86.40
46816;DHT22;32787;53.316;8.670;2023-02-02T09:51:42;6.30;86.20
46816;DHT22;32787;53.316;8.670;2023-02-02T09:54:42;6.30;86.40
46816;DHT22;32787;53.316;8.670;2023-02-02T09:57:16;6.30;86.40
46816;DHT22;32787;53.316;8.670;2023-02-02T09:59:44;6.30;86.10
46816;DHT22;32787;53.316;8.670;2023-02-02T10:02:32;6.20;86.20
46816;DHT22;32787;53.316;8.670;2023-02-02T10:05:15;6.20;86.40
46816;DHT22;32787;53.316;8.670;2023-02-02T10:07:45;6.30;86.30
46816;DHT22;32787;53.316;8.670;2023-02-02T10:10:31;6.30;86.40
46816;DHT22;32787;53.316;8.670;2023-02-02T10:16:05;6.30;86.60
46816;DHT22;32787;53.316;8.670;2023-02-02T10:21:12;6.40;86.90
46816;DHT22;32787;53.316;8.670;2023-02-02T10:23:43;6.50;86.60
46816;DHT22;32787;53.316;8.670;2023-02-02T10:29:15;6.70;86.40
46816;DHT22;32787;53.316;8.670;2023-02-02T10:40:46;6.90;86.10
46816;DHT22;32787;53.316;8.670;2023-02-02T10:43:40;6.90;86.30
46816;DHT22;32787;53.316;8.670;2023-02-02T10:46:20;7.00;86.10
46816;DHT22;32787;53.316;8.670;2023-02-02T10:48:47;7.00;86.10
46816;DHT22;32787;53.316;8.670;2023-02-02T10:51:20;7.00;86.00
46816;DHT22;32787;53.316;8.670;2023-02-02T10:53:50;7.00;86.10
46816;DHT22;32787;53.316;8.670;2023-02-02T10:56:25;7.00;86.00
46816;DHT22;32787;53.316;8.670;2023-02-02T10:59:20;7.10;86.20
46816;DHT22;32787;53.316;8.670;2023-02-02T11:01:49;7.30;86.00
46816;DHT22;32787;53.316;8.670;2023-02-02T11:04:21;7.60;85.90
46816;DHT22;32787;53.316;8.670;2023-02-02T11:07:05;7.90;85.20
46816;DHT22;32787;53.316;8.670;2023-02-02T11:09:36;7.90;84.60
46816;DHT22;32787;53.316;8.670;2023-02-02T11:15:21;8.00;84.60
46816;DHT22;32787;53.316;8.670;2023-02-02T11:17:44;7.80;84.90
46816;DHT22;32787;53.316;8.670;2023-02-02T11:20:23;7.70;85.70
46816;DHT22;32787;53.316;8.670;2023-02-02T11:22:59;7.50;85.90
46816;DHT22;32787;53.316;8.670;2023-02-02T11:25:32;7.40;86.10
46816;DHT22;32787;53.316;8.670;2023-02-02T11:28:00;7.50;85.60
46816;DHT22;32787;53.316;8.670;2023-02-02T11:30:36;7.50;84.90
46816;DHT22;32787;53.316;8.670;2023-02-02T11:33:29;7.40;85.00
46816;DHT22;32787;53.316;8.670;2023-02-02T11:36:21;7.30;85.10
46816;DHT22;32787;53.316;8.670;2023-02-02T11:38:47;7.40;85.50
46816;DHT22;32787;53.316;8.670;2023-02-02T11:41:12;7.60;84.70
46816;DHT22;32787;53.316;8.670;2023-02-02T11:43:52;7.80;84.30
46816;DHT22;32787;53.316;8.670;2023-02-02T11:46:24;7.90;83.30
46816;DHT22;32787;53.316;8.670;2023-02-02T11:49:11;8.10;83.50
46816;DHT22;32787;53.316;8.670;2023-02-02T11:51:39;8.10;83.60
46816;DHT22;32787;53.316;8.670;2023-02-02T11:54:14;8.20;83.30
46816;DHT22;32787;53.316;8.670;2023-02-02T11:56:41;8.20;82.50
46816;DHT22;32787;53.316;8.670;2023-02-02T12:02:22;8.50;82.10
46816;DHT22;32787;53.316;8.670;2023-02-02T12:04:49;9.10;82.10
46816;DHT22;32787;53.316;8.670;2023-02-02T12:09:50;9.00;81.30
46816;DHT22;32787;53.316;8.670;2023-02-02T12:12:26;9.00;81.30
46816;DHT22;32787;53.316;8.670;2023-02-02T12:15:17;8.40;80.40
46816;DHT22;32787;53.316;8.670;2023-02-02T12:17:54;8.20;82.20
46816;DHT22;32787;53.316;8.670;2023-02-02T12:20:42;8.20;82.80
46816;DHT22;32787;53.316;8.670;2023-02-02T12:23:20;8.10;82.70
46816;DHT22;32787;53.316;8.670;2023-02-02T12:28:54;8.00;83.70
46816;DHT22;32787;53.316;8.670;2023-02-02T12:34:35;7.90;84.20
46816;DHT22;32787;53.316;8.670;2023-02-02T12:37:12;7.90;84.70
46816;DHT22;32787;53.316;8.670;2023-02-02T12:40:13;7.90;85.10
46816;DHT22;32787;53.316;8.670;2023-02-02T12:42:54;7.90;85.30
46816;DHT22;32787;53.316;8.670;2023-02-02T13:08:08;7.90;83.80
46816;DHT22;32787;53.316;8.670;2023-02-02T13:10:41;8.00;83.70
46816;DHT22;32787;53.316;8.670;2023-02-02T13:15:48;8.10;81.80
46816;DHT22;32787;53.316;8.670;2023-02-02T13:18:26;8.30;82.30
46816;DHT22;32787;53.316;8.670;2023-02-02T13:21:00;8.40;82.00
46816;DHT22;32787;53.316;8.670;2023-02-02T13:23:30;8.40;81.90
46816;DHT22;32787;53.316;8.670;2023-02-02T13:26:14;8.30;81.10
46816;DHT22;32787;53.316;8.670;2023-02-02T13:28:56;8.30;81.70
46816;DHT22;32787;53.316;8.670;2023-02-02T13:31:41;8.40;80.60
46816;DHT22;32787;53.316;8.670;2023-02-02T13:36:43;8.40;79.20
46816;DHT22;32787;53.316;8.670;2023-02-02T13:39:46;8.30;78.20
46816;DHT22;32787;53.316;8.670;2023-02-02T13:42:46;8.30;79.30
46816;DHT22;32787;53.316;8.670;2023-02-02T13:56:29;8.00;79.80
46816;DHT22;32787;53.316;8.670;2023-02-02T14:01:23;8.00;79.00
46816;DHT22;32787;53.316;8.670;2023-02-02T14:03:52;7.90;80.20
46816;DHT22;32787;53.316;8.670;2023-02-02T14:06:20;7.90;80.30
46816;DHT22;32787;53.316;8.670;2023-02-02T14:08:56;7.90;81.40
46816;DHT22;32787;53.316;8.670;2023-02-02T14:14:19;8.00;80.30
46816;DHT22;32787;53.316;8.670;2023-02-02T14:19:52;8.00;80.10
46816;DHT22;32787;53.316;8.670;2023-02-02T14:22:19;8.00;80.00
46816;DHT22;32787;53.316;8.670;2023-02-02T14:25:02;8.10;80.20
46816;DHT22;32787;53.316;8.670;2023-02-02T14:34:58;8.10;79.40
46816;DHT22;32787;53.316;8.670;2023-02-02T14:45:34;7.90;79.90
46816;DHT22;32787;53.316;8.670;2023-02-02T14:48:07;7.80;80.50
46816;DHT22;32787;53.316;8.670;2023-02-02T14:53:29;7.90;80.30
46816;DHT22;32787;53.316;8.670;2023-02-02T14:56:18;7.80;80.40
46816;DHT22;32787;53.316;8.670;2023-02-02T14:58:55;7.90;80.60
46816;DHT22;32787;53.316;8.670;2023-02-02T15:01:27;8.00;80.40
46816;DHT22;32787;53.316;8.670;2023-02-02T15:06:46;7.90;81.00
46816;DHT22;32787;53.316;8.670;2023-02-02T15:14:39;7.70;81.40
46816;DHT22;32787;53.316;8.670;2023-02-02T15:19:44;7.40;82.90
46816;DHT22;32787;53.316;8.670;2023-02-02T15:24:51;7.40;83.80
46816;DHT22;32787;53.316;8.670;2023-02-02T15:27:19;7.60;82.90
46816;DHT22;32787;53.316;8.670;2023-02-02T15:29:49;7.50;83.00
46816;DHT22;32787;53.316;8.670;2023-02-02T15:32:20;7.50;83.10
46816;DHT22;32787;53.316;8.670;2023-02-02T15:34:52;7.50;83.10
46816;DHT22;32787;53.316;8.670;2023-02-02T15:37:22;7.50;83.20
46816;DHT22;32787;53.316;8.670;2023-02-02T15:39:52;7.40;83.70
46816;DHT22;32787;53.316;8.670;2023-02-02T15:42:29;7.30;83.90
46816;DHT22;32787;53.316;8.670;2023-02-02T15:45:31;7.20;84.30
46816;DHT22;32787;53.316;8.670;2023-02-02T15:48:08;7.20;84.80
46816;DHT22;32787;53.316;8.670;2023-02-02T15:50:38;7.20;84.70
46816;DHT22;32787;53.316;8.670;2023-02-02T15:53:18;7.10;84.80
46816;DHT22;32787;53.316;8.670;2023-02-02T15:55:44;7.10;84.90
46816;DHT22;32787;53.316;8.670;2023-02-02T15:58:39;6.90;85.20
46816;DHT22;32787;53.316;8.670;2023-02-02T16:01:15;6.80;85.60
46816;DHT22;32787;53.316;8.670;2023-02-02T16:06:34;6.80;85.80
46816;DHT22;32787;53.316;8.670;2023-02-02T16:09:04;6.60;86.00
46816;DHT22;32787;53.316;8.670;2023-02-02T16:11:31;6.60;86.30
46816;DHT22;32787;53.316;8.670;2023-02-02T16:14:05;6.50;86.70
46816;DHT22;32787;53.316;8.670;2023-02-02T16:16:37;6.40;86.80
46816;DHT22;32787;53.316;8.670;2023-02-02T16:19:14;6.40;87.20
46816;DHT22;32787;53.316;8.670;2023-02-02T16:21:51;6.40;87.40
46816;DHT22;32787;53.316;8.670;2023-02-02T16:24:38;6.40;87.50
46816;DHT22;32787;53.316;8.670;2023-02-02T16:27:06;6.60;87.50
46816;DHT22;32787;53.316;8.670;2023-02-02T16:29:33;6.60;87.30
46816;DHT22;32787;53.316;8.670;2023-02-02T16:31:59;6.70;87.40
46816;DHT22;32787;53.316;8.670;2023-02-02T16:34:51;7.20;86.90
46816;DHT22;32787;53.316;8.670;2023-02-02T16:37:24;7.30;86.40
46816;DHT22;32787;53.316;8.670;2023-02-02T16:39:54;7.10;86.80
46816;DHT22;32787;53.316;8.670;2023-02-02T16:42:30;7.10;87.00
46816;DHT22;32787;53.316;8.670;2023-02-02T16:44:57;7.20;87.30
46816;DHT22;32787;53.316;8.670;2023-02-02T16:49:53;7.10;87.50
46816;DHT22;32787;53.316;8.670;2023-02-02T16:52:20;7.10;88.10
46816;DHT22;32787;53.316;8.670;2023-02-02T16:54:56;6.90;88.60
46816;DHT22;32787;53.316;8.670;2023-02-02T16:57:25;6.80;88.60
46816;DHT22;32787;53.316;8.670;2023-02-02T16:59:54;6.80;89.00
46816;DHT22;32787;53.316;8.670;2023-02-02T17:04:59;6.80;89.10
46816;DHT22;32787;53.316;8.670;2023-02-02T17:07:27;6.60;89.60
46816;DHT22;32787;53.316;8.670;2023-02-02T17:10:33;6.60;89.70
46816;DHT22;32787;53.316;8.670;2023-02-02T17:13:01;6.40;90.00
46816;DHT22;32787;53.316;8.670;2023-02-02T17:17:56;6.50;90.30
46816;DHT22;32787;53.316;8.670;2023-02-02T17:20:22;6.50;90.00
46816;DHT22;32787;53.316;8.670;2023-02-02T17:22:55;6.50;90.10
46816;DHT22;32787;53.316;8.670;2023-02-02T17:25:51;6.40;90.30
46816;DHT22;32787;53.316;8.670;2023-02-02T17:28:22;6.30;90.40
46816;DHT22;32787;53.316;8.670;2023-02-02T17:31:09;6.30;90.40
46816;DHT22;32787;53.316;8.670;2023-02-02T17:33:36;6.40;90.40
46816;DHT22;32787;53.316;8.670;2023-02-02T17:36:03;6.30;90.30
46816;DHT22;32787;53.316;8.670;2023-02-02T17:38:29;6.30;90.70
46816;DHT22;32787;53.316;8.670;2023-02-02T17:40:57;6.20;90.80
46816;DHT22;32787;53.316;8.670;2023-02-02T17:43:23;6.10;90.80
46816;DHT22;32787;53.316;8.670;2023-02-02T17:45:48;6.10;91.00
46816;DHT22;32787;53.316;8.670;2023-02-02T17:48:15;6.10;91.10
46816;DHT22;32787;53.316;8.670;2023-02-02T17:50:41;6.00;91.20
46816;DHT22;32787;53.316;8.670;2023-02-02T17:53:12;6.00;91.60
46816;DHT22;32787;53.316;8.670;2023-02-02T17:55:40;6.00;91.70
46816;DHT22;32787;53.316;8.670;2023-02-02T17:58:07;6.10;91.40
46816;DHT22;32787;53.316;8.670;2023-02-02T18:00:33;6.00;91.60
46816;DHT22;32787;53.316;8.670;2023-02-02T18:03:13;6.00;91.60
46816;DHT22;32787;53.316;8.670;2023-02-02T18:05:41;6.20;91.70
46816;DHT22;32787;53.316;8.670;2023-02-02T18:08:08;6.10;91.30
46816;DHT22;32787;53.316;8.670;2023-02-02T18:10:33;6.00;91.50
46816;DHT22;32787;53.316;8.670;2023-02-02T18:13:00;5.90;91.40
46816;DHT22;32787;53.316;8.670;2023-02-02T18:15:26;5.90;91.50
46816;DHT22;32787;53.316;8.670;2023-02-02T18:17:51;5.80;91.70
46816;DHT22;32787;53.316;8.670;2023-02-02T18:20:17;5.90;91.70
46816;DHT22;32787;53.316;8.670;2023-02-02T18:22:43;5.90;91.80
46816;DHT22;32787;53.316;8.670;2023-02-02T18:25:09;5.90;91.80
46816;DHT22;32787;53.316;8.670;2023-02-02T18:27:36;5.80;91.70
46816;DHT22;32787;53.316;8.670;2023-02-02T18:30:01;5.70;91.80
46816;DHT22;32787;53.316;8.670;2023-02-02T18:32:27;5.80;91.90
46816;DHT22;32787;53.316;8.670;2023-02-02T18:34:53;5.80;92.10
46816;DHT22;32787;53.316;8.670;2023-02-02T18:37:21;5.80;92.10
46816;DHT22;32787;53.316;8.670;2023-02-02T18:39:47;5.80;91.90
46816;DHT22;32787;53.316;8.670;2023-02-02T18:42:13;5.80;92.00
46816;DHT22;32787;53.316;8.670;2023-02-02T18:44:39;5.90;91.80
46816;DHT22;32787;53.316;8.670;2023-02-02T18:47:05;5.80;91.80